首页
METAR-TAF:

METAR-TAF

机场 :

Gander, 紐芬蘭-拉布拉多, 加拿大

纬度: 48-57N, 经度: 054-34W, 海拔: 151米

当前天气观测

该预报发布于41分钟前的20:00 UTC
风速17节,风向
温度 3°C
湿度 87%
气压 1019 hPa
能見度: 24.1公里
散云层高于1500英尺
多云层高于2800英尺
阴天层高于3600英尺
小雨

METAR: CYQX 262000Z 36017KT 15SM -RA SCT015 BKN028 OVC036 03/01 A3008 RMK SC3SC3SC2 SLP195

时间: 18:11 (20:41 UTC)

预报

该预报发布于3小时和1分钟前的17:40 UTC
预报有效从26日的 18点(UTC)到 27日的 18点(UTC)
风速15节,风向,有时为25节阵风
能見度: 10公里
多云层高于1500英尺
阴天层高于5000英尺
短暂存在
从 26日的 18点(UTC)到 26日的 24点(UTC)
散云层高于1500英尺
多云层高于5000英尺
从 27日的 0000点(UTC)
风速8节,风向
能見度: 10公里
多云层高于2000英尺
阴天层高于5000英尺
短暂存在
从 27日的 00点(UTC)到 27日的 10点(UTC)
多云层高于800英尺
阴天层高于5000英尺
从 27日的 1000点(UTC)
风速10节,风向北转西北
能見度: 10公里
散云层高于800英尺
多云层高于2000英尺
阴天层高于10000英尺
从 27日的 1300点(UTC)
风速10节,风向北转西北
能見度: 10公里
多云层高于3000英尺
多云层高于10000英尺
从 27日的 1500点(UTC)
风速10节,风向北转西北
能見度: 10公里
散云层高于3000英尺

TAF: CYQX 261740Z 2618/2718 01015G25KT P6SM BKN015 OVC050 TEMPO 2618/2624 SCT015 BKN050 FM270000 35008KT P6SM BKN020 OVC050 TEMPO 2700/2710 BKN008 OVC050 FM271000 33010KT P6SM SCT008 BKN020 OVC100 FM271300 33010KT P6SM BKN030 BKN100 FM271500 34010KT P6SM SCT030 RMK NXT FCST BY 270000Z

超过4000个机场的气象观测和天气预报(METAR&TAF报告)。

可查询的气象台以黄色和红色小点在地图上表示。

将鼠标移到小点上方,可查看气象台名称。

然后点击查看天气观测和预报。

如需切换地图:点击带黑十字的绿色按钮放大地图;点击带横线的绿色按钮缩小地图;或者点击绿色箭头查看邻近地区的地图。


METAR-TAF: